createdAt,value
2023-04-25T00:01:01.603Z,99586.14
2023-04-25T00:04:30.826Z,99587.02
2023-04-25T00:07:59.215Z,99585.67
2023-04-25T00:11:26.518Z,99583.83
2023-04-25T00:14:53.927Z,99587.49
2023-04-25T00:18:21.064Z,99589.81
2023-04-25T00:21:47.956Z,99587.96
2023-04-25T00:25:14.707Z,99589.08
2023-04-25T00:28:41.899Z,99589.66
2023-04-25T00:32:09.076Z,99591.63
2023-04-25T00:35:36.387Z,99597.60
2023-04-25T00:39:04.171Z,99604.06
2023-04-25T00:42:33.132Z,99603.61
2023-04-25T00:46:02.051Z,99604.06
2023-04-25T00:49:28.947Z,99603.79
2023-04-25T00:52:56.306Z,99598.48
2023-04-25T00:56:23.278Z,99599.59
2023-04-25T00:59:50.276Z,99602.59
2023-04-25T01:03:18.345Z,99605.59
2023-04-25T01:06:46.074Z,99607.75
2023-04-25T01:10:13.353Z,99608.05
2023-04-25T01:13:40.140Z,99609.05
2023-04-25T01:17:08.799Z,99610.59
2023-04-25T01:20:36.403Z,99609.48
2023-04-25T01:24:03.775Z,99605.44
2023-04-25T01:27:31.568Z,99605.55
2023-04-25T01:30:59.052Z,99605.48
2023-04-25T01:34:26.436Z,99610.94
2023-04-25T01:37:53.760Z,99610.36
2023-04-25T01:41:21.008Z,99613.58
2023-04-25T01:44:48.067Z,99612.83
2023-04-25T01:48:16.302Z,99613.98
2023-04-25T01:51:44.617Z,99611.66
2023-04-25T01:55:12.979Z,99608.98
2023-04-25T01:58:46.906Z,99607.37
2023-04-25T02:02:39.303Z,99609.48
2023-04-25T02:06:13.468Z,99614.70
2023-04-25T02:09:44.006Z,99615.76
2023-04-25T02:13:12.711Z,99614.92
2023-04-25T02:17:02.714Z,99620.47
2023-04-25T02:20:32.572Z,99626.54
2023-04-25T02:23:59.726Z,99624.31
2023-04-25T02:27:29.009Z,99623.77
2023-04-25T02:30:57.179Z,99625.02
2023-04-25T02:34:24.741Z,99622.90
2023-04-25T02:37:51.586Z,99623.56
2023-04-25T02:41:18.871Z,99623.98
2023-04-25T02:44:45.924Z,99620.45
2023-04-25T02:48:13.200Z,99623.84
2023-04-25T02:51:40.219Z,99621.21
2023-04-25T02:55:08.409Z,99621.29
2023-04-25T02:58:35.676Z,99614.98
2023-04-25T03:02:02.711Z,99609.87
2023-04-25T03:05:30.114Z,99611.00
2023-04-25T03:08:56.975Z,99606.95
2023-04-25T03:12:24.211Z,99604.11
2023-04-25T03:15:51.430Z,99603.56
2023-04-25T03:19:19.725Z,99599.70
2023-04-25T03:22:46.724Z,99595.52
2023-04-25T03:26:13.686Z,99591.67
2023-04-25T03:29:41.513Z,99594.05
2023-04-25T03:33:10.083Z,99598.34
2023-04-25T03:36:38.282Z,99603.02
2023-04-25T03:40:10.060Z,99603.02
2023-04-25T03:43:57.096Z,99603.23
2023-04-25T03:47:24.263Z,99607.40
2023-04-25T03:50:52.885Z,99610.23
2023-04-25T03:54:19.984Z,99614.26
2023-04-25T03:57:54.914Z,99613.66
2023-04-25T04:01:23.065Z,99613.95
2023-04-25T04:04:50.482Z,99613.43
2023-04-25T04:08:18.002Z,99615.36
2023-04-25T04:11:45.029Z,99620.81
2023-04-25T04:15:13.496Z,99619.89
2023-04-25T04:18:40.912Z,99620.55
2023-04-25T04:22:08.596Z,99621.08
2023-04-25T04:25:36.515Z,99624.19
2023-04-25T04:29:26.171Z,99626.13
2023-04-25T04:33:04.536Z,99626.63
2023-04-25T04:36:32.084Z,99630.17
2023-04-25T04:39:59.506Z,99629.57
2023-04-25T04:43:46.529Z,99634.48
2023-04-25T04:47:33.753Z,99638.61
2023-04-25T04:51:23.528Z,99635.34
2023-04-25T04:55:23.170Z,99637.48
2023-04-25T04:59:19.283Z,99636.77
2023-04-25T05:03:07.809Z,99636.13
2023-04-25T05:06:55.254Z,99636.14
2023-04-25T05:10:46.822Z,99634.42
2023-04-25T05:14:40.129Z,99634.56
2023-04-25T05:18:26.936Z,99629.59
2023-04-25T05:22:13.086Z,99630.67
2023-04-25T05:25:54.021Z,99635.23
2023-04-25T05:29:34.628Z,99638.55
2023-04-25T05:33:09.032Z,99642.73
2023-04-25T05:36:35.872Z,99638.90
2023-04-25T05:40:03.058Z,99645.02
2023-04-25T05:43:49.934Z,99643.25
2023-04-25T05:47:40.498Z,99644.65
2023-04-25T05:51:13.328Z,99642.88
2023-04-25T05:54:40.192Z,99645.50
2023-04-25T05:58:07.947Z,99648.13
2023-04-25T06:01:36.116Z,99651.80
2023-04-25T06:05:05.194Z,99651.11
2023-04-25T06:08:32.341Z,99651.48
2023-04-25T06:11:59.296Z,99656.55
2023-04-25T06:15:28.595Z,99652.88
2023-04-25T06:18:56.221Z,99651.13
2023-04-25T06:22:23.234Z,99653.23
2023-04-25T06:25:51.314Z,99654.28
2023-04-25T06:29:18.156Z,99656.19
2023-04-25T06:32:45.595Z,99654.44
2023-04-25T06:36:12.888Z,99653.03
2023-04-25T06:39:41.479Z,99652.69
2023-04-25T06:43:08.638Z,99648.14
2023-04-25T06:46:54.575Z,99649.20
2023-04-25T06:50:21.654Z,99648.14
2023-04-25T06:53:48.806Z,99646.40
2023-04-25T06:57:24.533Z,99650.93
2023-04-25T07:00:52.477Z,99648.45
2023-04-25T07:04:21.800Z,99654.22
2023-04-25T07:07:55.514Z,99650.40
2023-04-25T07:11:22.624Z,99649.00
2023-04-25T07:14:49.742Z,99651.80
2023-04-25T07:18:17.455Z,99658.23
2023-04-25T07:21:44.917Z,99655.05
2023-04-25T07:25:13.621Z,99661.31
2023-04-25T07:28:42.409Z,99653.40
2023-04-25T07:32:09.841Z,99649.66
2023-04-25T07:35:37.233Z,99650.98
2023-04-25T07:39:04.607Z,99652.66
2023-04-25T07:42:31.743Z,99657.02
2023-04-25T07:46:01.419Z,99656.06
2023-04-25T07:49:32.238Z,99652.29
2023-04-25T07:53:01.269Z,99649.78
2023-04-25T07:56:52.536Z,99655.13
2023-04-25T08:00:25.052Z,99653.33
2023-04-25T08:03:55.020Z,99647.97
2023-04-25T08:07:31.171Z,99649.88
2023-04-25T08:11:02.680Z,99650.77
2023-04-25T08:14:38.412Z,99647.15
2023-04-25T08:18:08.633Z,99651.30
2023-04-25T08:21:35.893Z,99651.44
2023-04-25T08:25:08.360Z,99653.33
2023-04-25T08:28:35.857Z,99657.46
2023-04-25T08:32:04.277Z,99660.71
2023-04-25T08:35:34.082Z,99659.58
2023-04-25T08:39:02.841Z,99658.44
2023-04-25T08:42:33.364Z,99662.24
2023-04-25T08:46:03.649Z,99665.36
2023-04-25T08:49:47.175Z,99666.02
2023-04-25T08:53:19.834Z,99669.48
2023-04-25T08:56:49.543Z,99666.67
2023-04-25T09:00:17.874Z,99676.00
2023-04-25T09:03:45.761Z,99674.09
2023-04-25T09:07:13.262Z,99677.06
2023-04-25T09:10:41.101Z,99682.87
2023-04-25T09:14:19.158Z,99686.57
2023-04-25T09:18:07.528Z,99691.42
2023-04-25T09:21:38.578Z,99695.13
2023-04-25T09:25:10.548Z,99696.13
2023-04-25T09:28:39.030Z,99695.86
2023-04-25T09:32:17.282Z,99697.09
2023-04-25T09:35:47.159Z,99702.12
2023-04-25T09:39:22.504Z,99708.78
2023-04-25T09:43:00.205Z,99705.77
2023-04-25T09:46:27.735Z,99702.29
2023-04-25T09:49:57.239Z,99703.64
2023-04-25T09:53:24.438Z,99700.81
2023-04-25T09:57:12.500Z,99705.48
2023-04-25T10:00:40.608Z,99702.78
2023-04-25T10:04:14.916Z,99702.48
2023-04-25T10:08:04.075Z,99706.23
2023-04-25T10:11:32.734Z,99718.05
2023-04-25T10:15:01.382Z,99717.08
2023-04-25T10:18:29.755Z,99719.48
2023-04-25T10:22:04.613Z,99717.59
2023-04-25T10:25:31.951Z,99720.54
2023-04-25T10:29:03.521Z,99721.52
2023-04-25T10:32:31.267Z,99717.98
2023-04-25T10:36:10.564Z,99718.36
2023-04-25T10:39:37.447Z,99722.44
2023-04-25T10:43:34.406Z,99719.67
2023-04-25T10:47:02.510Z,99718.69
2023-04-25T10:50:41.462Z,99722.26
2023-04-25T10:54:10.069Z,99712.56
2023-04-25T10:57:43.469Z,99716.51
2023-04-25T11:01:10.912Z,99716.45
2023-04-25T11:04:40.017Z,99713.55
2023-04-25T11:08:15.099Z,99708.33
2023-04-25T11:11:42.359Z,99704.23
2023-04-25T11:15:11.559Z,99705.31
2023-04-25T11:18:39.306Z,99706.33
2023-04-25T11:22:07.911Z,99707.31
2023-04-25T11:25:37.747Z,99709.41
2023-04-25T11:29:05.681Z,99709.45
2023-04-25T11:32:32.640Z,99712.98
2023-04-25T11:36:00.534Z,99720.88
2023-04-25T11:39:30.359Z,99723.45
2023-04-25T11:42:56.211Z,99731.03
2023-04-25T11:46:24.310Z,99722.83
2023-04-25T11:49:57.100Z,99730.43
2023-04-25T11:53:25.865Z,99735.52
2023-04-25T11:56:53.500Z,99746.00
2023-04-25T12:00:24.097Z,99751.04
2023-04-25T12:03:52.040Z,99755.50
2023-04-25T12:07:22.772Z,99755.58
2023-04-25T12:10:50.648Z,99753.84
2023-04-25T12:14:25.492Z,99754.35
2023-04-25T12:17:54.925Z,99747.96
2023-04-25T12:21:22.772Z,99748.72
2023-04-25T12:24:52.631Z,99746.30
2023-04-25T12:28:21.747Z,99747.27
2023-04-25T12:31:49.032Z,99749.51
2023-04-25T12:35:17.039Z,99758.52
2023-04-25T12:38:45.092Z,99762.59
2023-04-25T12:42:13.388Z,99774.41
2023-04-25T12:45:41.187Z,99772.36
2023-04-25T12:49:18.748Z,99769.96
2023-04-25T12:52:46.365Z,99769.30
2023-04-25T12:56:13.549Z,99772.11
2023-04-25T12:59:41.078Z,99769.77
2023-04-25T13:03:08.596Z,99764.25
2023-04-25T13:06:35.957Z,99758.35
2023-04-25T13:10:04.007Z,99759.11
2023-04-25T13:13:30.927Z,99762.80
2023-04-25T13:16:58.448Z,99773.77
2023-04-25T13:20:26.208Z,99779.70
2023-04-25T13:23:53.827Z,99784.52
2023-04-25T13:27:21.558Z,99785.20
2023-04-25T13:30:49.078Z,99787.06
2023-04-25T13:34:16.192Z,99794.72
2023-04-25T13:37:43.554Z,99790.55
2023-04-25T13:41:12.276Z,99787.44
2023-04-25T13:44:39.430Z,99792.35
2023-04-25T13:48:07.698Z,99792.92
2023-04-25T13:51:34.828Z,99791.54
2023-04-25T13:55:04.384Z,99797.83
2023-04-25T13:58:31.785Z,99797.09
2023-04-25T14:01:58.860Z,99798.08
2023-04-25T14:05:25.826Z,99796.28
2023-04-25T14:08:52.885Z,99797.07
2023-04-25T14:12:20.048Z,99788.22
2023-04-25T14:15:47.026Z,99781.58
2023-04-25T14:19:14.397Z,99777.96
2023-04-25T14:22:44.831Z,99775.41
2023-04-25T14:26:13.693Z,99793.46
2023-04-25T14:29:41.272Z,99806.10
2023-04-25T14:33:08.432Z,99812.34
2023-04-25T14:36:36.168Z,99816.02
2023-04-25T14:40:03.710Z,99816.67
2023-04-25T14:43:30.632Z,99817.02
2023-04-25T14:46:57.653Z,99824.92
2023-04-25T14:50:25.162Z,99825.98
2023-04-25T14:53:52.682Z,99824.42
2023-04-25T14:57:19.771Z,99823.55
2023-04-25T15:00:46.971Z,99823.70
2023-04-25T15:04:15.423Z,99828.26
2023-04-25T15:07:43.106Z,99834.38
2023-04-25T15:11:10.280Z,99835.61
2023-04-25T15:14:37.759Z,99836.84
2023-04-25T15:18:05.411Z,99836.13
2023-04-25T15:21:33.402Z,99838.59
2023-04-25T15:25:00.504Z,99841.05
2023-04-25T15:28:27.713Z,99841.56
2023-04-25T15:31:55.229Z,99848.04
2023-04-25T15:35:22.090Z,99850.79
2023-04-25T15:38:48.831Z,99854.93
2023-04-25T15:42:15.944Z,99856.46
2023-04-25T15:45:43.040Z,99855.19
2023-04-25T15:49:10.178Z,99859.02
2023-04-25T15:52:38.057Z,99856.71
2023-04-25T15:56:05.932Z,99857.23
2023-04-25T15:59:32.836Z,99861.60
2023-04-25T16:02:59.875Z,99863.67
2023-04-25T16:06:27.790Z,99870.45
2023-04-25T16:09:54.580Z,99870.73
2023-04-25T16:13:21.479Z,99871.73
2023-04-25T16:16:48.651Z,99875.17
2023-04-25T16:20:16.414Z,99879.17
2023-04-25T16:23:43.706Z,99876.02
2023-04-25T16:27:10.853Z,99883.14
2023-04-25T16:30:37.686Z,99885.05
2023-04-25T16:34:05.188Z,99889.74
2023-04-25T16:37:32.173Z,99891.48
2023-04-25T16:40:59.228Z,99893.58
2023-04-25T16:44:26.220Z,99895.68
2023-04-25T16:47:53.407Z,99900.40
2023-04-25T16:51:20.748Z,99899.85
2023-04-25T16:54:47.935Z,99895.63
2023-04-25T16:58:15.016Z,99902.76
2023-04-25T17:01:41.969Z,99910.93
2023-04-25T17:05:10.724Z,99912.28
2023-04-25T17:08:37.824Z,99923.40
2023-04-25T17:12:04.962Z,99932.34
2023-04-25T17:15:34.178Z,99940.73
2023-04-25T17:19:01.218Z,99941.97
2023-04-25T17:22:28.413Z,99945.06
2023-04-25T17:25:55.523Z,99946.92
2023-04-25T17:29:23.848Z,99950.41
2023-04-25T17:32:50.697Z,99954.23
2023-04-25T17:36:18.175Z,99955.41
2023-04-25T17:39:45.850Z,99959.89
2023-04-25T17:43:12.948Z,99961.40
2023-04-25T17:46:40.163Z,99958.44
2023-04-25T17:50:09.009Z,99963.62
2023-04-25T17:53:36.649Z,99966.73
2023-04-25T17:57:04.819Z,99971.38
2023-04-25T18:00:32.604Z,99977.60
2023-04-25T18:03:59.798Z,99982.27
2023-04-25T18:07:26.815Z,99987.05
2023-04-25T18:10:54.529Z,99990.98
2023-04-25T18:14:22.303Z,99991.42
2023-04-25T18:17:49.928Z,99989.92
2023-04-25T18:21:17.712Z,99993.02
2023-04-25T18:24:46.458Z,99994.73
2023-04-25T18:28:13.961Z,99996.42
2023-04-25T18:31:42.040Z,100001.20
2023-04-25T18:35:12.362Z,100007.21
2023-04-25T18:38:39.875Z,100011.70
2023-04-25T18:42:07.299Z,100018.73
2023-04-25T18:45:34.726Z,100025.30
2023-04-25T18:49:05.068Z,100032.86
2023-04-25T18:52:33.252Z,100038.14
2023-04-25T18:56:01.201Z,100044.58
2023-04-25T18:59:28.609Z,100050.48
2023-04-25T19:02:58.540Z,100053.73
2023-04-25T19:06:30.104Z,100060.27
2023-04-25T19:09:57.915Z,100063.02
2023-04-25T19:13:24.959Z,100067.40
2023-04-25T19:16:52.345Z,100069.46
2023-04-25T19:20:21.113Z,100072.52
2023-04-25T19:23:48.400Z,100074.27
2023-04-25T19:27:15.612Z,100078.02
2023-04-25T19:30:43.047Z,100080.36
2023-04-25T19:34:11.405Z,100082.55
2023-04-25T19:37:39.176Z,100081.86
2023-04-25T19:41:06.570Z,100082.45
2023-04-25T19:44:33.725Z,100086.31
2023-04-25T19:48:01.269Z,100087.54
2023-04-25T19:51:28.550Z,100096.39
2023-04-25T19:54:58.295Z,100096.70
2023-04-25T19:58:25.913Z,100097.00
2023-04-25T20:01:52.812Z,100097.39
2023-04-25T20:05:20.390Z,100094.29
2023-04-25T20:08:48.062Z,100098.31
2023-04-25T20:12:18.170Z,100100.26
2023-04-25T20:15:45.186Z,100100.23
2023-04-25T20:19:12.264Z,100102.10
2023-04-25T20:22:40.535Z,100100.98
2023-04-25T20:26:07.828Z,100102.86
2023-04-25T20:29:34.846Z,100108.33
2023-04-25T20:33:04.136Z,100102.90
2023-04-25T20:36:32.218Z,100104.25
2023-04-25T20:39:59.477Z,100106.16
2023-04-25T20:43:27.200Z,100104.66
2023-04-25T20:46:54.411Z,100104.77
2023-04-25T20:50:21.489Z,100109.02
2023-04-25T20:53:48.670Z,100109.59
2023-04-25T20:57:15.908Z,100105.51
2023-04-25T21:00:42.945Z,100110.55
2023-04-25T21:04:10.345Z,100110.89
2023-04-25T21:07:38.303Z,100118.86
2023-04-25T21:11:05.265Z,100118.52
2023-04-25T21:14:32.320Z,100116.23
2023-04-25T21:17:59.347Z,100117.09
2023-04-25T21:21:26.458Z,100118.60
2023-04-25T21:24:54.318Z,100118.08
2023-04-25T21:28:21.555Z,100117.38
2023-04-25T21:31:48.975Z,100119.41
2023-04-25T21:35:15.906Z,100126.13
2023-04-25T21:38:42.864Z,100125.88
2023-04-25T21:42:10.882Z,100124.07
2023-04-25T21:45:51.328Z,100127.52
2023-04-25T21:49:29.392Z,100128.85
2023-04-25T21:52:58.966Z,100127.42
2023-04-25T21:56:24.719Z,100130.70
2023-04-25T21:59:51.646Z,100133.96
2023-04-25T22:03:20.249Z,100136.34
2023-04-25T22:06:47.662Z,100138.91
2023-04-25T22:10:15.325Z,100134.70
2023-04-25T22:13:42.383Z,100139.14
2023-04-25T22:17:10.046Z,100140.61
2023-04-25T22:20:38.806Z,100141.04
2023-04-25T22:24:06.284Z,100146.85
2023-04-25T22:27:34.219Z,100145.50
2023-04-25T22:31:01.270Z,100145.14
2023-04-25T22:34:28.492Z,100150.30
2023-04-25T22:37:55.218Z,100150.02
2023-04-25T22:41:23.759Z,100153.67
2023-04-25T22:44:52.146Z,100152.63
2023-04-25T22:48:18.944Z,100148.94
2023-04-25T22:51:45.818Z,100150.41
2023-04-25T22:55:13.203Z,100150.59
2023-04-25T22:58:40.870Z,100155.73
2023-04-25T23:02:07.755Z,100156.70
2023-04-25T23:05:34.828Z,100157.23
2023-04-25T23:09:01.801Z,100156.60
2023-04-25T23:12:28.791Z,100155.00
2023-04-25T23:15:55.569Z,100156.42
2023-04-25T23:19:22.941Z,100160.26
2023-04-25T23:22:50.480Z,100165.14
2023-04-25T23:26:17.484Z,100163.77
2023-04-25T23:29:44.430Z,100167.59
2023-04-25T23:33:11.712Z,100166.03
2023-04-25T23:36:39.280Z,100166.25
2023-04-25T23:40:10.104Z,100171.52
2023-04-25T23:43:37.099Z,100174.33
2023-04-25T23:47:04.170Z,100174.94
2023-04-25T23:50:32.062Z,100177.63
2023-04-25T23:53:58.962Z,100175.48
2023-04-25T23:57:26.057Z,100178.63
